Time;durP1;ratioP1;P1;durP2;ratioP2;P2;SDS_P1;SDS_P2;PMS_P1;PMS_P2;Temp;Humidity;BMP_temperature;BMP_pressure;BME280_temperature;BME280_humidity;BME280_pressure;Samples;Min_cycle;Max_cycle;Signal;HPM_P1;HPM_P2
2023/07/18 00:01:46;;;;;;;2.70;1.47;;;;;;;;;;8301803;28;20041;-60
2023/07/18 00:05:46;;;;;;;2.03;1.30;;;;;;;;;;8301507;28;20315;-60
2023/07/18 00:09:46;;;;;;;2.78;1.60;;;;;;;;;;8303432;28;20021;-60
2023/07/18 00:13:47;;;;;;;2.15;1.30;;;;;;;;;;8305008;28;20043;-60
2023/07/18 00:17:47;;;;;;;3.28;1.45;;;;;;;;;;8301135;28;20116;-60
2023/07/18 00:21:47;;;;;;;4.88;1.60;;;;;;;;;;8302686;28;20596;-61
2023/07/18 00:25:48;;;;;;;5.35;1.50;;;;;;;;;;8302948;28;20144;-61
2023/07/18 00:29:48;;;;;;;3.58;1.52;;;;;;;;;;8299851;28;20686;-60
2023/07/18 00:33:49;;;;;;;3.90;2.15;;;;;;;;;;8301466;28;20168;-60
2023/07/18 00:37:49;;;;;;;2.28;1.65;;;;;;;;;;8300553;28;20136;-61
2023/07/18 00:41:49;;;;;;;3.08;2.10;;;;;;;;;;8301122;28;20041;-61
2023/07/18 00:45:50;;;;;;;3.20;1.92;;;;;;;;;;8305403;28;20037;-61
2023/07/18 00:49:50;;;;;;;2.75;1.50;;;;;;;;;;8303058;28;20025;-61
2023/07/18 00:53:51;;;;;;;2.90;1.90;;;;;;;;;;8303024;28;20071;-61
2023/07/18 00:57:53;;;;;;;1.70;1.50;;;;;;;;;;8298536;28;21170;-61
2023/07/18 01:01:53;;;;;;;3.40;1.65;;;;;;;;;;8300173;28;20025;-61
2023/07/18 01:05:53;;;;;;;3.65;1.70;;;;;;;;;;8299951;28;21086;-61
2023/07/18 01:09:54;;;;;;;4.28;2.00;;;;;;;;;;8299183;28;20110;-61
2023/07/18 01:13:54;;;;;;;3.20;1.90;;;;;;;;;;8298037;28;20025;-61
2023/07/18 01:17:55;;;;;;;3.25;2.05;;;;;;;;;;8299400;28;20045;-61
2023/07/18 01:21:55;;;;;;;4.85;2.28;;;;;;;;;;8299989;28;20029;-61
2023/07/18 01:25:55;;;;;;;2.88;2.10;;;;;;;;;;8299415;28;20029;-61
2023/07/18 01:29:56;;;;;;;4.03;1.90;;;;;;;;;;8300997;28;20020;-61
2023/07/18 01:33:56;;;;;;;2.57;2.10;;;;;;;;;;8303739;28;20109;-61
2023/07/18 01:37:56;;;;;;;3.58;2.22;;;;;;;;;;8306202;28;20060;-61
2023/07/18 01:41:56;;;;;;;4.55;2.00;;;;;;;;;;8304855;28;20025;-60
2023/07/18 01:45:57;;;;;;;4.43;1.92;;;;;;;;;;8307985;28;20144;-60
2023/07/18 01:49:58;;;;;;;3.72;2.08;;;;;;;;;;8303925;28;20035;-60
2023/07/18 01:53:59;;;;;;;1.90;1.70;;;;;;;;;;8306358;28;20155;-60
2023/07/18 01:58:00;;;;;;;3.72;2.28;;;;;;;;;;8303709;28;20022;-61
2023/07/18 02:02:03;;;;;;;3.00;1.80;;;;;;;;;;8308396;28;20390;-61
2023/07/18 02:06:04;;;;;;;2.88;1.92;;;;;;;;;;8305811;28;20140;-61
2023/07/18 02:10:04;;;;;;;1.83;1.63;;;;;;;;;;8305910;28;20604;-61
2023/07/18 02:14:04;;;;;;;2.63;1.90;;;;;;;;;;8306044;28;20970;-61
2023/07/18 02:18:04;;;;;;;2.65;1.92;;;;;;;;;;8307078;28;20056;-61
2023/07/18 02:22:05;;;;;;;2.45;1.88;;;;;;;;;;8303562;28;20136;-62
2023/07/18 02:26:05;;;;;;;2.47;1.90;;;;;;;;;;8301606;28;20039;-61
2023/07/18 02:30:08;;;;;;;2.72;2.05;;;;;;;;;;8300475;28;20088;-61
2023/07/18 02:34:09;;;;;;;3.58;2.35;;;;;;;;;;8305621;28;20064;-61
2023/07/18 02:38:09;;;;;;;4.70;2.05;;;;;;;;;;8304456;28;20026;-61
2023/07/18 02:42:09;;;;;;;2.43;2.03;;;;;;;;;;8306257;28;20037;-61
2023/07/18 02:46:11;;;;;;;5.03;2.00;;;;;;;;;;8302754;28;20140;-61
2023/07/18 02:50:11;;;;;;;2.90;1.95;;;;;;;;;;8307715;28;20025;-61
2023/07/18 02:54:11;;;;;;;3.08;2.05;;;;;;;;;;8305748;28;20025;-61
2023/07/18 02:58:12;;;;;;;5.07;2.00;;;;;;;;;;8304106;28;20029;-60
2023/07/18 03:02:12;;;;;;;2.13;1.93;;;;;;;;;;8303436;28;20199;-60
2023/07/18 03:06:13;;;;;;;3.13;2.17;;;;;;;;;;8301159;28;20044;-60
2023/07/18 03:10:14;;;;;;;3.08;2.00;;;;;;;;;;8303751;28;20117;-60
2023/07/18 03:14:14;;;;;;;3.60;2.35;;;;;;;;;;8301611;28;20508;-60
2023/07/18 03:18:14;;;;;;;3.55;2.47;;;;;;;;;;8300284;28;20958;-61
2023/07/18 03:22:15;;;;;;;5.35;2.20;;;;;;;;;;8300736;28;20030;-61
2023/07/18 03:26:15;;;;;;;2.57;1.90;;;;;;;;;;8299366;28;20029;-61
2023/07/18 03:30:16;;;;;;;3.97;2.50;;;;;;;;;;8302902;28;20097;-61
2023/07/18 03:34:16;;;;;;;2.70;2.03;;;;;;;;;;8304454;28;20559;-60
2023/07/18 03:38:16;;;;;;;3.00;2.13;;;;;;;;;;8302934;28;20540;-61
2023/07/18 03:42:17;;;;;;;2.77;1.93;;;;;;;;;;8301571;28;20100;-61
2023/07/18 03:46:17;;;;;;;3.88;2.15;;;;;;;;;;8300393;28;20295;-60
2023/07/18 03:50:17;;;;;;;4.07;2.38;;;;;;;;;;8300991;28;20017;-61
2023/07/18 03:54:18;;;;;;;3.42;2.60;;;;;;;;;;8302512;28;20474;-61
2023/07/18 03:58:19;;;;;;;3.67;2.55;;;;;;;;;;8302497;28;20894;-61
2023/07/18 04:02:19;;;;;;;4.47;2.28;;;;;;;;;;8299289;28;20045;-61
2023/07/18 04:06:20;;;;;;;2.75;2.05;;;;;;;;;;8299641;28;20504;-61
2023/07/18 04:10:20;;;;;;;3.30;2.30;;;;;;;;;;8301027;28;20040;-61
2023/07/18 04:14:20;;;;;;;5.10;2.10;;;;;;;;;;8300090;28;20132;-61
2023/07/18 04:18:21;;;;;;;3.27;2.30;;;;;;;;;;8297514;28;20053;-61
2023/07/18 04:22:21;;;;;;;3.72;2.45;;;;;;;;;;8302007;28;20128;-61
2023/07/18 04:26:21;;;;;;;3.53;2.10;;;;;;;;;;8299846;28;20026;-61
2023/07/18 04:30:22;;;;;;;2.95;2.05;;;;;;;;;;8300099;28;20259;-61
2023/07/18 04:34:22;;;;;;;2.60;2.00;;;;;;;;;;8302282;28;20132;-61
2023/07/18 04:38:22;;;;;;;2.42;1.83;;;;;;;;;;8297979;28;20283;-60
2023/07/18 04:42:22;;;;;;;4.68;2.30;;;;;;;;;;8300395;28;20029;-60
2023/07/18 04:46:22;;;;;;;4.50;2.28;;;;;;;;;;8297365;28;20151;-61
2023/07/18 04:50:23;;;;;;;3.05;2.00;;;;;;;;;;8300432;28;20017;-60
2023/07/18 04:54:23;;;;;;;2.95;1.90;;;;;;;;;;8296689;28;20017;-60
2023/07/18 04:58:24;;;;;;;4.03;2.20;;;;;;;;;;8291809;28;20067;-60
2023/07/18 05:02:25;;;;;;;3.17;2.10;;;;;;;;;;8300296;28;20037;-60
2023/07/18 05:06:25;;;;;;;4.25;2.30;;;;;;;;;;8298355;28;20318;-60
2023/07/18 05:10:25;;;;;;;2.53;1.90;;;;;;;;;;8297576;28;20025;-60
2023/07/18 05:14:25;;;;;;;3.07;2.07;;;;;;;;;;8299285;28;20060;-60
2023/07/18 05:18:26;;;;;;;7.77;2.33;;;;;;;;;;8298201;28;20045;-60
2023/07/18 05:22:26;;;;;;;12.20;2.58;;;;;;;;;;8301533;28;20033;-60
2023/07/18 05:26:26;;;;;;;6.37;2.07;;;;;;;;;;8296504;28;20025;-60
2023/07/18 05:30:27;;;;;;;3.15;2.30;;;;;;;;;;8295200;28;20279;-61
2023/07/18 05:34:27;;;;;;;5.75;2.00;;;;;;;;;;8296246;28;20092;-61
2023/07/18 05:38:27;;;;;;;3.75;2.13;;;;;;;;;;8299067;28;20077;-61
2023/07/18 05:42:28;;;;;;;4.30;2.25;;;;;;;;;;8295514;28;20604;-61
2023/07/18 05:46:28;;;;;;;2.55;2.10;;;;;;;;;;8295559;28;20041;-61
2023/07/18 05:50:28;;;;;;;3.97;2.40;;;;;;;;;;8297153;28;20037;-61
2023/07/18 05:54:30;;;;;;;6.85;2.10;;;;;;;;;;8298602;28;20113;-61
2023/07/18 05:58:30;;;;;;;5.80;2.25;;;;;;;;;;8295727;28;20027;-62
2023/07/18 06:02:31;;;;;;;4.50;2.55;;;;;;;;;;8295645;28;20852;-60
2023/07/18 06:06:31;;;;;;;3.93;2.50;;;;;;;;;;8297097;28;20021;-60
2023/07/18 06:10:31;;;;;;;6.67;2.53;;;;;;;;;;8297480;28;20760;-60
2023/07/18 06:14:32;;;;;;;3.37;2.17;;;;;;;;;;8297573;28;20063;-60
2023/07/18 06:18:33;;;;;;;6.00;2.40;;;;;;;;;;8292778;28;20033;-60
2023/07/18 06:22:34;;;;;;;4.68;2.20;;;;;;;;;;8300531;28;20040;-60
2023/07/18 06:26:34;;;;;;;8.15;2.08;;;;;;;;;;8299213;28;21186;-62
2023/07/18 06:30:35;;;;;;;5.55;2.13;;;;;;;;;;8301873;28;20030;-60
2023/07/18 06:34:40;;;;;;;6.88;2.13;;;;;;;;;;8305191;28;20022;-61
2023/07/18 06:38:40;;;;;;;3.55;2.10;;;;;;;;;;8305433;28;20033;-61
2023/07/18 06:42:40;;;;;;;3.25;2.10;;;;;;;;;;8305049;28;20896;-60
2023/07/18 06:46:41;;;;;;;2.85;1.95;;;;;;;;;;8302112;28;20045;-60
2023/07/18 06:50:46;;;;;;;3.83;1.87;;;;;;;;;;8312090;28;20446;-61
2023/07/18 06:54:46;;;;;;;3.42;2.10;;;;;;;;;;8309070;28;20043;-60
2023/07/18 06:58:46;;;;;;;3.40;2.10;;;;;;;;;;8304099;28;20120;-61
2023/07/18 07:02:46;;;;;;;4.93;2.10;;;;;;;;;;8304016;28;20047;-61
2023/07/18 07:06:47;;;;;;;2.83;2.17;;;;;;;;;;8302239;28;20025;-60
2023/07/18 07:10:47;;;;;;;4.68;2.08;;;;;;;;;;8305358;28;20037;-60
2023/07/18 07:14:47;;;;;;;3.57;1.80;;;;;;;;;;8303953;28;20021;-61
2023/07/18 07:18:49;;;;;;;3.45;1.98;;;;;;;;;;8303242;28;20067;-60
2023/07/18 07:22:49;;;;;;;4.63;2.03;;;;;;;;;;8305595;28;20029;-60
2023/07/18 07:26:50;;;;;;;4.32;2.00;;;;;;;;;;8303894;28;20025;-61
2023/07/18 07:30:51;;;;;;;4.18;2.10;;;;;;;;;;8302000;28;20034;-60
2023/07/18 07:34:51;;;;;;;3.53;2.03;;;;;;;;;;8305587;28;20037;-61
2023/07/18 07:38:51;;;;;;;5.40;2.00;;;;;;;;;;8298543;28;20121;-60
2023/07/18 07:42:52;;;;;;;2.78;1.80;;;;;;;;;;8302684;28;20033;-60
2023/07/18 07:46:52;;;;;;;4.78;2.10;;;;;;;;;;8302120;28;20033;-60
2023/07/18 07:50:52;;;;;;;4.57;1.90;;;;;;;;;;8306539;28;20029;-60
2023/07/18 07:54:52;;;;;;;4.17;1.90;;;;;;;;;;8304367;28;20052;-60
2023/07/18 07:58:53;;;;;;;2.38;1.80;;;;;;;;;;8303831;28;20103;-60
2023/07/18 08:02:53;;;;;;;3.17;1.93;;;;;;;;;;8304366;28;20037;-60
2023/07/18 08:06:55;;;;;;;5.88;2.13;;;;;;;;;;8305399;28;20025;-60
2023/07/18 08:10:56;;;;;;;;;;;;;;;;;;8305131;28;20124;-60
2023/07/18 08:14:56;;;;;;;2.50;1.90;;;;;;;;;;8304442;28;19913;-61
2023/07/18 08:18:56;;;;;;;3.90;1.90;;;;;;;;;;8304666;28;20071;-61
2023/07/18 08:22:56;;;;;;;2.75;1.75;;;;;;;;;;8303812;28;20116;-61
2023/07/18 08:26:57;;;;;;;3.97;1.70;;;;;;;;;;8301508;28;20045;-61
2023/07/18 08:30:57;;;;;;;3.70;1.90;;;;;;;;;;8303040;28;20141;-61
2023/07/18 08:34:57;;;;;;;4.60;2.10;;;;;;;;;;8302246;28;20028;-61
2023/07/18 08:38:57;;;;;;;4.13;2.13;;;;;;;;;;8301501;28;20021;-61
2023/07/18 08:42:58;;;;;;;5.22;1.95;;;;;;;;;;8303675;28;20034;-61
2023/07/18 08:47:00;;;;;;;2.75;1.73;;;;;;;;;;8303400;28;20116;-60
2023/07/18 08:51:00;;;;;;;3.83;1.85;;;;;;;;;;8302781;28;20669;-60
2023/07/18 08:55:01;;;;;;;4.63;2.10;;;;;;;;;;8305520;28;20064;-60
2023/07/18 08:59:01;;;;;;;6.05;2.05;;;;;;;;;;8299689;28;20021;-60
2023/07/18 09:03:01;;;;;;;3.07;1.60;;;;;;;;;;8306351;28;20666;-61
2023/07/18 09:07:02;;;;;;;4.25;1.98;;;;;;;;;;8302392;28;20350;-60
2023/07/18 09:11:03;;;;;;;6.47;1.95;;;;;;;;;;8302339;28;20097;-60
2023/07/18 09:15:03;;;;;;;3.40;1.52;;;;;;;;;;8303623;28;20050;-60
2023/07/18 09:19:03;;;;;;;2.25;1.70;;;;;;;;;;8300502;28;20615;-60
2023/07/18 09:23:04;;;;;;;3.65;1.70;;;;;;;;;;8304117;28;20623;-60
2023/07/18 09:27:08;;;;;;;2.33;1.83;;;;;;;;;;8301659;28;20035;-60
2023/07/18 09:31:29;;;;;;;1.75;1.50;;;;;;;;;;8299810;28;20040;-60
2023/07/18 09:35:29;;;;;;;2.38;1.60;;;;;;;;;;8303074;28;20410;-61
2023/07/18 09:39:29;;;;;;;2.37;1.70;;;;;;;;;;8300102;28;20767;-60
2023/07/18 09:43:29;;;;;;;2.42;1.60;;;;;;;;;;8302256;28;20127;-60
2023/07/18 09:47:30;;;;;;;2.60;1.80;;;;;;;;;;8300529;28;20049;-61
2023/07/18 09:51:33;;;;;;;2.25;1.60;;;;;;;;;;8301777;28;20125;-60
2023/07/18 09:55:34;;;;;;;2.25;1.67;;;;;;;;;;8307030;28;20144;-60
2023/07/18 09:59:37;;;;;;;3.30;1.70;;;;;;;;;;8309123;28;20049;-60
2023/07/18 10:03:40;;;;;;;4.00;1.80;;;;;;;;;;8306785;28;20039;-60
2023/07/18 10:07:41;;;;;;;2.42;1.58;;;;;;;;;;8306464;28;20047;-60
2023/07/18 10:12:00;;;;;;;6.22;1.73;;;;;;;;;;8306915;28;20056;-60
2023/07/18 10:16:13;;;;;;;5.55;1.50;;;;;;;;;;8308436;28;20960;-60
2023/07/18 10:20:31;;;;;;;2.03;1.65;;;;;;;;;;8307130;28;20093;-60
2023/07/18 10:24:31;;;;;;;3.22;1.70;;;;;;;;;;8308682;28;20120;-60
2023/07/18 10:28:41;;;;;;;2.63;1.50;;;;;;;;;;8303976;28;20560;-60
2023/07/18 10:32:43;;;;;;;3.85;1.70;;;;;;;;;;8305748;28;20025;-60
2023/07/18 10:36:55;;;;;;;3.30;1.53;;;;;;;;;;8306685;28;20024;-60
2023/07/18 10:40:55;;;;;;;;;;;;;;;;;;8307080;28;20456;-60
2023/07/18 10:44:59;;;;;;;8.23;2.00;;;;;;;;;;8306231;28;19928;-60
2023/07/18 10:49:00;;;;;;;6.38;1.73;;;;;;;;;;8302484;28;20064;-60
2023/07/18 10:53:00;;;;;;;2.72;1.63;;;;;;;;;;8306926;28;20025;-61
2023/07/18 10:57:01;;;;;;;4.25;1.70;;;;;;;;;;8305271;28;20115;-60
2023/07/18 11:01:01;;;;;;;3.00;1.73;;;;;;;;;;8303362;28;20048;-61
2023/07/18 11:05:06;;;;;;;4.07;1.60;;;;;;;;;;8297858;28;20075;-60
2023/07/18 11:09:11;;;;;;;3.92;1.60;;;;;;;;;;8301808;28;20024;-60
2023/07/18 11:13:11;;;;;;;8.93;2.17;;;;;;;;;;8303269;28;20086;-60
2023/07/18 11:17:18;;;;;;;5.00;2.00;;;;;;;;;;8302078;28;20029;-60
2023/07/18 11:21:19;;;;;;;3.92;1.60;;;;;;;;;;8301369;28;20132;-60
2023/07/18 11:25:19;;;;;;;2.37;1.47;;;;;;;;;;8300971;28;20060;-60
2023/07/18 11:29:25;;;;;;;4.32;1.60;;;;;;;;;;8299245;28;20024;-61
2023/07/18 11:33:29;;;;;;;4.28;1.60;;;;;;;;;;8298070;28;20809;-61
2023/07/18 11:37:29;;;;;;;3.42;1.90;;;;;;;;;;8301020;28;20021;-61
2023/07/18 11:41:40;;;;;;;4.23;1.63;;;;;;;;;;8299164;28;20033;-62
2023/07/18 11:45:40;;;;;;;2.22;1.55;;;;;;;;;;8301230;28;20053;-61
2023/07/18 11:49:42;;;;;;;4.20;1.80;;;;;;;;;;8299597;28;20935;-61
2023/07/18 11:53:44;;;;;;;3.13;1.80;;;;;;;;;;8299786;28;20029;-61
2023/07/18 11:57:44;;;;;;;2.73;1.83;;;;;;;;;;8297936;28;20656;-61
2023/07/18 12:01:44;;;;;;;7.93;1.73;;;;;;;;;;8299350;28;20536;-61
2023/07/18 12:05:45;;;;;;;6.00;1.90;;;;;;;;;;8301961;28;20148;-61
2023/07/18 12:09:45;;;;;;;2.30;1.87;;;;;;;;;;8300353;28;20125;-61
2023/07/18 12:13:45;;;;;;;3.07;1.70;;;;;;;;;;8301550;28;20097;-61
2023/07/18 12:17:46;;;;;;;4.72;1.73;;;;;;;;;;8297892;28;20033;-61
2023/07/18 12:21:46;;;;;;;2.35;1.63;;;;;;;;;;8297789;28;20115;-61
2023/07/18 12:25:47;;;;;;;5.17;1.83;;;;;;;;;;8296813;28;20091;-61
2023/07/18 12:29:47;;;;;;;2.63;1.70;;;;;;;;;;8300302;28;20026;-61
2023/07/18 12:33:47;;;;;;;3.73;1.80;;;;;;;;;;8297488;28;20041;-61
2023/07/18 12:37:48;;;;;;;7.33;1.70;;;;;;;;;;8298295;28;20037;-61
2023/07/18 12:41:48;;;;;;;7.05;2.10;;;;;;;;;;8301022;28;20032;-61
2023/07/18 12:45:48;;;;;;;3.57;2.03;;;;;;;;;;8298348;28;20037;-61
2023/07/18 12:49:50;;;;;;;4.68;1.80;;;;;;;;;;8300339;28;20144;-61
2023/07/18 12:53:51;;;;;;;5.53;2.10;;;;;;;;;;8292836;28;20049;-63
2023/07/18 12:57:51;;;;;;;3.40;1.80;;;;;;;;;;8295801;28;20033;-61
2023/07/18 13:01:51;;;;;;;6.17;2.03;;;;;;;;;;8300261;28;20406;-61
2023/07/18 13:05:51;;;;;;;6.85;2.10;;;;;;;;;;8300205;28;20038;-62
2023/07/18 13:09:52;;;;;;;3.20;1.90;;;;;;;;;;8299240;28;20021;-61
2023/07/18 13:13:52;;;;;;;3.67;1.67;;;;;;;;;;8296434;28;20034;-61
2023/07/18 13:17:53;;;;;;;2.37;1.70;;;;;;;;;;8300225;28;20041;-61
2023/07/18 13:21:54;;;;;;;3.17;1.87;;;;;;;;;;8295599;28;20025;-62
2023/07/18 13:25:54;;;;;;;3.88;1.83;;;;;;;;;;8298351;28;20028;-62
2023/07/18 13:29:55;;;;;;;6.13;2.10;;;;;;;;;;8304194;28;20029;-61
2023/07/18 13:33:55;;;;;;;5.80;2.00;;;;;;;;;;8301612;28;20140;-61
2023/07/18 13:37:55;;;;;;;4.13;1.70;;;;;;;;;;8299675;28;20037;-62
2023/07/18 13:41:56;;;;;;;4.20;2.00;;;;;;;;;;8309913;28;20028;-62
2023/07/18 13:45:56;;;;;;;7.87;1.90;;;;;;;;;;8304686;28;20048;-62
2023/07/18 13:49:57;;;;;;;7.13;2.30;;;;;;;;;;8304995;28;20022;-61
2023/07/18 13:53:58;;;;;;;2.47;1.70;;;;;;;;;;8305401;28;20021;-61
2023/07/18 13:57:58;;;;;;;3.88;1.75;;;;;;;;;;8304832;28;20029;-61
2023/07/18 14:01:59;;;;;;;4.43;1.90;;;;;;;;;;8306035;28;20396;-61
2023/07/18 14:05:59;;;;;;;3.83;1.97;;;;;;;;;;8304295;28;20017;-61
2023/07/18 14:10:00;;;;;;;4.20;2.10;;;;;;;;;;8304122;28;20021;-61
2023/07/18 14:14:00;;;;;;;3.57;1.80;;;;;;;;;;8303246;28;20045;-61
2023/07/18 14:18:00;;;;;;;6.72;2.03;;;;;;;;;;8302040;28;20047;-61
2023/07/18 14:22:01;;;;;;;3.37;2.00;;;;;;;;;;8302592;28;20033;-61
2023/07/18 14:26:01;;;;;;;3.50;1.88;;;;;;;;;;8301968;28;20067;-61
2023/07/18 14:30:02;;;;;;;7.77;1.93;;;;;;;;;;8299555;28;20028;-61
2023/07/18 14:34:02;;;;;;;2.50;1.92;;;;;;;;;;8300282;28;20240;-61
2023/07/18 14:38:03;;;;;;;2.77;1.80;;;;;;;;;;8304352;28;20919;-61
2023/07/18 14:42:03;;;;;;;2.88;1.65;;;;;;;;;;8298044;28;20034;-61
2023/07/18 14:46:03;;;;;;;2.67;1.60;;;;;;;;;;8300259;28;20896;-61
2023/07/18 14:50:04;;;;;;;3.88;2.10;;;;;;;;;;8302797;28;20040;-61
2023/07/18 14:54:04;;;;;;;5.93;1.90;;;;;;;;;;8303902;28;20707;-61
2023/07/18 14:58:05;;;;;;;14.07;1.93;;;;;;;;;;8300720;28;20025;-61
2023/07/18 15:02:05;;;;;;;4.32;1.85;;;;;;;;;;8300824;28;20721;-61
2023/07/18 15:06:05;;;;;;;2.33;1.77;;;;;;;;;;8300033;28;20032;-61
2023/07/18 15:10:06;;;;;;;2.10;1.80;;;;;;;;;;8300573;28;20025;-61
2023/07/18 15:14:06;;;;;;;2.47;1.90;;;;;;;;;;8301766;28;20469;-61
2023/07/18 15:18:07;;;;;;;4.45;1.70;;;;;;;;;;8300760;28;20075;-61
2023/07/18 15:22:07;;;;;;;8.00;2.30;;;;;;;;;;8301837;28;20133;-61
2023/07/18 15:26:07;;;;;;;1.95;1.75;;;;;;;;;;8300604;28;20437;-61
2023/07/18 15:30:08;;;;;;;6.18;2.17;;;;;;;;;;8301468;28;20025;-62
2023/07/18 15:34:09;;;;;;;2.83;1.77;;;;;;;;;;8302070;28;20124;-61
2023/07/18 15:38:09;;;;;;;2.88;1.60;;;;;;;;;;8299175;28;20100;-61
2023/07/18 15:42:09;;;;;;;3.58;1.60;;;;;;;;;;8303070;28;20098;-61
2023/07/18 15:46:10;;;;;;;3.05;1.90;;;;;;;;;;8293753;28;20045;-61
2023/07/18 15:50:10;;;;;;;4.73;1.97;;;;;;;;;;8296993;28;20565;-61
2023/07/18 15:54:11;;;;;;;4.35;1.75;;;;;;;;;;8299071;28;20431;-61
2023/07/18 15:58:11;;;;;;;6.47;1.95;;;;;;;;;;8293966;28;20480;-61
2023/07/18 16:02:11;;;;;;;3.55;1.70;;;;;;;;;;8295458;28;20584;-61
2023/07/18 16:06:12;;;;;;;7.05;1.85;;;;;;;;;;8293489;28;20797;-61
2023/07/18 16:10:12;;;;;;;4.40;1.80;;;;;;;;;;8296262;28;20024;-61
2023/07/18 16:14:13;;;;;;;5.32;1.80;;;;;;;;;;8298055;28;20031;-61
2023/07/18 16:18:13;;;;;;;2.13;1.50;;;;;;;;;;8298782;28;20174;-61
2023/07/18 16:22:17;;;;;;;6.47;2.08;;;;;;;;;;8300411;28;20031;-61
2023/07/18 16:26:18;;;;;;;2.63;1.80;;;;;;;;;;8302525;28;20033;-61
2023/07/18 16:30:18;;;;;;;3.60;1.85;;;;;;;;;;8302061;28;20040;-61
2023/07/18 16:34:18;;;;;;;3.53;1.90;;;;;;;;;;8300512;28;20021;-61
2023/07/18 16:38:20;;;;;;;10.80;2.22;;;;;;;;;;8300777;28;20040;-61
2023/07/18 16:42:20;;;;;;;3.08;1.90;;;;;;;;;;8301510;28;20025;-61
2023/07/18 16:46:21;;;;;;;7.45;2.00;;;;;;;;;;8302363;28;20175;-61
2023/07/18 16:50:21;;;;;;;5.82;1.83;;;;;;;;;;8302859;28;20438;-61
2023/07/18 16:54:21;;;;;;;2.60;1.73;;;;;;;;;;8301689;28;20082;-61
2023/07/18 16:58:21;;;;;;;3.65;1.85;;;;;;;;;;8300722;28;20627;-61
2023/07/18 17:02:22;;;;;;;7.07;2.10;;;;;;;;;;8299960;28;20034;-61
2023/07/18 17:06:22;;;;;;;8.43;1.90;;;;;;;;;;8299245;28;20037;-61
2023/07/18 17:10:22;;;;;;;5.07;1.87;;;;;;;;;;8301775;28;20801;-61
2023/07/18 17:14:22;;;;;;;10.27;2.03;;;;;;;;;;8308890;28;20029;-61
2023/07/18 17:18:23;;;;;;;11.32;2.20;;;;;;;;;;8301540;28;20036;-61
2023/07/18 17:22:23;;;;;;;6.60;1.70;;;;;;;;;;8303368;28;20063;-60
2023/07/18 17:26:23;;;;;;;5.32;2.05;;;;;;;;;;8299510;28;20043;-61
2023/07/18 17:30:23;;;;;;;4.22;1.73;;;;;;;;;;8301009;28;20898;-61
2023/07/18 17:34:24;;;;;;;2.80;1.70;;;;;;;;;;8300851;28;20792;-61
2023/07/18 17:38:24;;;;;;;2.35;1.73;;;;;;;;;;8301847;28;20276;-61
2023/07/18 17:42:25;;;;;;;5.50;2.03;;;;;;;;;;8299779;28;20029;-60
2023/07/18 17:46:25;;;;;;;8.18;1.73;;;;;;;;;;8300668;28;20920;-60
2023/07/18 17:50:25;;;;;;;5.15;1.70;;;;;;;;;;8300735;28;20072;-60
2023/07/18 17:54:27;;;;;;;4.73;1.50;;;;;;;;;;8299242;28;20112;-60
2023/07/18 17:58:27;;;;;;;5.43;1.70;;;;;;;;;;8298451;28;20029;-60
2023/07/18 18:02:28;;;;;;;1.83;1.30;;;;;;;;;;8300227;28;20049;-61
2023/07/18 18:06:28;;;;;;;2.35;1.60;;;;;;;;;;8302445;28;20029;-60
2023/07/18 18:10:30;;;;;;;8.90;2.00;;;;;;;;;;8299559;28;20032;-61
2023/07/18 18:14:30;;;;;;;6.47;2.10;;;;;;;;;;8303375;28;20074;-61
2023/07/18 18:18:30;;;;;;;8.27;2.25;;;;;;;;;;8305944;28;20122;-61
2023/07/18 18:22:30;;;;;;;7.05;1.88;;;;;;;;;;8309062;28;20043;-61
2023/07/18 18:26:31;;;;;;;4.32;1.60;;;;;;;;;;8304575;28;20029;-61
2023/07/18 18:30:31;;;;;;;3.13;1.70;;;;;;;;;;8307066;28;20044;-61
2023/07/18 18:34:31;;;;;;;5.43;1.90;;;;;;;;;;8307629;28;20029;-61
2023/07/18 18:38:31;;;;;;;5.15;1.83;;;;;;;;;;8304448;28;20726;-61
2023/07/18 18:42:33;;;;;;;10.13;1.80;;;;;;;;;;8302504;28;20037;-61
2023/07/18 18:46:33;;;;;;;2.28;1.60;;;;;;;;;;8299883;28;20041;-61
2023/07/18 18:50:34;;;;;;;4.22;1.83;;;;;;;;;;8304145;28;20140;-60
2023/07/18 18:54:34;;;;;;;3.50;1.42;;;;;;;;;;8301359;28;20022;-61
2023/07/18 18:58:34;;;;;;;3.58;1.70;;;;;;;;;;8300469;28;20032;-61
2023/07/18 19:02:35;;;;;;;5.40;1.83;;;;;;;;;;8304238;28;20930;-61
2023/07/18 19:06:35;;;;;;;4.13;1.85;;;;;;;;;;8301595;28;20044;-61
2023/07/18 19:10:35;;;;;;;6.37;1.60;;;;;;;;;;8304416;28;20022;-61
2023/07/18 19:14:37;;;;;;;6.72;1.90;;;;;;;;;;8300112;28;20230;-61
2023/07/18 19:18:38;;;;;;;2.67;1.60;;;;;;;;;;8300569;28;20041;-61
2023/07/18 19:22:38;;;;;;;4.00;1.60;;;;;;;;;;8302152;28;20095;-60
2023/07/18 19:26:38;;;;;;;6.77;1.80;;;;;;;;;;8301721;28;20110;-60
2023/07/18 19:30:43;;;;;;;3.63;1.67;;;;;;;;;;8296986;28;20276;-59
2023/07/18 19:34:43;;;;;;;6.15;1.95;;;;;;;;;;8302000;28;20409;-61
2023/07/18 19:38:46;;;;;;;3.80;1.65;;;;;;;;;;8298783;28;20056;-60
2023/07/18 19:42:46;;;;;;;3.65;1.73;;;;;;;;;;8299686;28;20029;-60
2023/07/18 19:46:47;;;;;;;14.50;1.95;;;;;;;;;;8299190;28;20140;-60
2023/07/18 19:50:47;;;;;;;4.65;1.80;;;;;;;;;;8300170;28;20037;-60
2023/07/18 19:54:47;;;;;;;8.37;1.90;;;;;;;;;;8299455;28;20111;-60
2023/07/18 19:58:48;;;;;;;5.50;2.00;;;;;;;;;;8301776;28;20021;-61
2023/07/18 20:02:48;;;;;;;4.95;1.88;;;;;;;;;;8299835;28;20425;-61
2023/07/18 20:06:49;;;;;;;4.18;1.58;;;;;;;;;;8298035;28;20117;-61
2023/07/18 20:10:49;;;;;;;10.50;1.77;;;;;;;;;;8296830;28;20048;-61
2023/07/18 20:14:49;;;;;;;6.83;1.83;;;;;;;;;;8294704;28;20029;-61
2023/07/18 20:18:49;;;;;;;5.28;1.80;;;;;;;;;;8293346;28;20826;-60
2023/07/18 20:22:50;;;;;;;7.05;1.90;;;;;;;;;;8296691;28;20033;-61
2023/07/18 20:26:50;;;;;;;4.78;1.70;;;;;;;;;;8293596;28;20095;-60
2023/07/18 20:30:51;;;;;;;4.55;1.70;;;;;;;;;;8297696;28;20033;-60
2023/07/18 20:34:51;;;;;;;4.35;1.55;;;;;;;;;;8295860;28;20036;-60
2023/07/18 20:38:52;;;;;;;4.38;1.80;;;;;;;;;;8295498;28;20030;-60
2023/07/18 20:42:52;;;;;;;6.70;1.65;;;;;;;;;;8294493;28;20029;-60
2023/07/18 20:46:52;;;;;;;4.82;1.90;;;;;;;;;;8296350;28;20069;-61
2023/07/18 20:50:52;;;;;;;7.05;1.90;;;;;;;;;;8298069;28;20040;-60
2023/07/18 20:54:52;;;;;;;5.22;1.70;;;;;;;;;;8297385;28;20063;-61
2023/07/18 20:58:53;;;;;;;5.93;1.77;;;;;;;;;;8297975;28;20024;-61
2023/07/18 21:02:58;;;;;;;5.82;1.90;;;;;;;;;;8303360;28;20037;-61
2023/07/18 21:06:58;;;;;;;6.45;1.73;;;;;;;;;;8300546;28;20033;-61
2023/07/18 21:10:58;;;;;;;8.63;2.00;;;;;;;;;;8301504;28;20402;-61
2023/07/18 21:14:58;;;;;;;4.60;2.03;;;;;;;;;;8300246;28;20311;-61
2023/07/18 21:18:58;;;;;;;7.10;1.90;;;;;;;;;;8298494;28;20040;-61
2023/07/18 21:22:59;;;;;;;6.53;1.85;;;;;;;;;;8308644;28;20029;-61
2023/07/18 21:26:59;;;;;;;4.43;2.28;;;;;;;;;;8300133;28;20033;-61
2023/07/18 21:30:59;;;;;;;3.13;1.73;;;;;;;;;;8299554;28;20037;-61
2023/07/18 21:35:00;;;;;;;3.72;2.38;;;;;;;;;;8300706;28;20029;-60
2023/07/18 21:39:00;;;;;;;4.47;1.98;;;;;;;;;;8296683;28;20171;-61
2023/07/18 21:43:00;;;;;;;2.53;2.08;;;;;;;;;;8298146;28;20043;-60
2023/07/18 21:47:00;;;;;;;4.83;2.30;;;;;;;;;;8297401;28;20037;-60
2023/07/18 21:51:01;;;;;;;4.10;2.17;;;;;;;;;;8302854;28;20052;-60
2023/07/18 21:55:01;;;;;;;4.95;2.10;;;;;;;;;;8307187;28;20029;-60
2023/07/18 21:59:02;;;;;;;3.47;2.40;;;;;;;;;;8305973;28;20819;-61
2023/07/18 22:03:02;;;;;;;2.85;1.98;;;;;;;;;;8306120;28;20136;-61
2023/07/18 22:07:02;;;;;;;3.78;2.10;;;;;;;;;;8309519;28;20795;-61
2023/07/18 22:11:02;;;;;;;3.10;2.20;;;;;;;;;;8305319;28;20366;-61
2023/07/18 22:15:03;;;;;;;2.47;2.05;;;;;;;;;;8301489;28;20106;-61
2023/07/18 22:19:03;;;;;;;3.45;2.10;;;;;;;;;;8305358;28;20156;-60
2023/07/18 22:23:04;;;;;;;4.78;2.35;;;;;;;;;;8307756;28;20073;-60
2023/07/18 22:27:04;;;;;;;2.70;1.90;;;;;;;;;;8302059;28;20072;-61
2023/07/18 22:31:04;;;;;;;3.47;1.83;;;;;;;;;;8302615;28;20041;-60
2023/07/18 22:35:05;;;;;;;3.90;2.35;;;;;;;;;;8303172;28;20059;-60
2023/07/18 22:39:05;;;;;;;5.25;2.17;;;;;;;;;;8305741;28;20025;-60
2023/07/18 22:43:05;;;;;;;2.35;2.00;;;;;;;;;;8304102;28;20032;-60
2023/07/18 22:47:06;;;;;;;3.92;2.13;;;;;;;;;;8303980;28;20073;-60
2023/07/18 22:51:06;;;;;;;1.90;1.80;;;;;;;;;;8306499;28;20033;-60
2023/07/18 22:55:06;;;;;;;3.15;2.20;;;;;;;;;;8306036;28;20347;-60
2023/07/18 22:59:06;;;;;;;1.92;1.60;;;;;;;;;;8300784;28;20044;-60
2023/07/18 23:03:08;;;;;;;3.05;1.90;;;;;;;;;;8301369;28;20076;-60
2023/07/18 23:07:08;;;;;;;3.60;2.03;;;;;;;;;;8303156;28;20068;-60
2023/07/18 23:11:09;;;;;;;2.85;2.08;;;;;;;;;;8304892;28;20025;-60
2023/07/18 23:15:10;;;;;;;3.92;2.40;;;;;;;;;;8305318;28;20029;-61
2023/07/18 23:19:10;;;;;;;5.20;2.33;;;;;;;;;;8305546;28;20040;-61
2023/07/18 23:23:11;;;;;;;6.95;2.20;;;;;;;;;;8304641;28;20032;-61
2023/07/18 23:27:11;;;;;;;1.92;1.70;;;;;;;;;;8303434;28;20091;-61
2023/07/18 23:31:11;;;;;;;2.88;2.03;;;;;;;;;;8306161;28;20032;-61
2023/07/18 23:35:12;;;;;;;5.23;2.37;;;;;;;;;;8307964;28;20025;-61
2023/07/18 23:39:12;;;;;;;2.90;1.98;;;;;;;;;;8303258;28;20029;-60
2023/07/18 23:43:12;;;;;;;2.80;2.00;;;;;;;;;;8306046;28;20124;-60
2023/07/18 23:47:12;;;;;;;3.73;1.90;;;;;;;;;;8304309;28;20137;-60
2023/07/18 23:51:13;;;;;;;3.53;2.07;;;;;;;;;;8306924;28;20036;-60
2023/07/18 23:55:13;;;;;;;2.78;2.33;;;;;;;;;;8303884;28;20280;-61
2023/07/18 23:59:13;;;;;;;4.38;2.60;;;;;;;;;;8301952;28;20509;-61
